createdAt,value
2024-04-10T00:00:22.278Z,10.40
2024-04-10T00:02:49.392Z,10.50
2024-04-10T00:05:18.977Z,10.50
2024-04-10T00:07:46.218Z,10.30
2024-04-10T00:10:15.152Z,10.30
2024-04-10T00:12:42.193Z,10.40
2024-04-10T00:15:09.061Z,10.40
2024-04-10T00:17:36.165Z,10.30
2024-04-10T00:20:03.323Z,10.30
2024-04-10T00:22:30.562Z,10.20
2024-04-10T00:24:57.403Z,10.20
2024-04-10T00:27:24.211Z,10.20
2024-04-10T00:29:54.020Z,10.20
2024-04-10T00:32:20.965Z,10.20
2024-04-10T00:34:47.912Z,10.20
2024-04-10T00:37:14.731Z,10.30
2024-04-10T00:39:41.591Z,10.30
2024-04-10T00:42:08.541Z,10.30
2024-04-10T00:44:46.863Z,10.20
2024-04-10T00:47:13.779Z,10.10
2024-04-10T00:49:40.785Z,10.20
2024-04-10T00:52:08.695Z,10.20
2024-04-10T00:54:36.775Z,10.10
2024-04-10T00:57:04.489Z,10.20
2024-04-10T00:59:32.008Z,10.30
2024-04-10T01:02:00.209Z,10.30
2024-04-10T01:04:27.593Z,10.20
2024-04-10T01:06:54.431Z,10.20
2024-04-10T01:09:21.525Z,10.10
2024-04-10T01:11:48.883Z,10.10
2024-04-10T01:14:17.456Z,10.10
2024-04-10T01:16:45.164Z,10.10
2024-04-10T01:19:12.007Z,10.10
2024-04-10T01:21:38.839Z,10.10
2024-04-10T01:24:06.159Z,10.10
2024-04-10T01:26:33.288Z,10.10
2024-04-10T01:29:00.169Z,10.10
2024-04-10T01:31:28.546Z,10.10
2024-04-10T01:33:55.585Z,10.10
2024-04-10T01:36:23.162Z,10.00
2024-04-10T01:38:51.298Z,10.10
2024-04-10T01:41:18.304Z,10.00
2024-04-10T01:43:45.168Z,10.00
2024-04-10T01:46:12.582Z,10.00
2024-04-10T01:48:39.581Z,9.90
2024-04-10T01:51:06.534Z,9.90
2024-04-10T01:53:33.599Z,9.90
2024-04-10T01:56:00.614Z,9.80
2024-04-10T01:58:27.533Z,9.70
2024-04-10T02:00:55.649Z,9.70
2024-04-10T02:03:22.748Z,9.70
2024-04-10T02:05:50.997Z,9.70
2024-04-10T02:08:17.877Z,9.70
2024-04-10T02:10:44.783Z,9.70
2024-04-10T02:13:11.609Z,9.70
2024-04-10T02:15:38.439Z,9.70
2024-04-10T02:18:05.995Z,9.70
2024-04-10T02:20:32.935Z,9.70
2024-04-10T02:22:59.880Z,9.60
2024-04-10T02:25:26.710Z,9.50
2024-04-10T02:27:53.586Z,9.60
2024-04-10T02:30:20.403Z,9.60
2024-04-10T02:32:51.120Z,9.50
2024-04-10T02:35:18.654Z,9.40
2024-04-10T02:37:46.169Z,9.40
2024-04-10T02:40:13.102Z,9.30
2024-04-10T02:42:42.110Z,9.40
2024-04-10T02:45:09.088Z,9.40
2024-04-10T02:47:36.007Z,9.30
2024-04-10T02:50:05.732Z,9.30
2024-04-10T02:52:32.608Z,9.30
2024-04-10T02:54:59.447Z,9.30
2024-04-10T02:57:26.496Z,9.20
2024-04-10T02:59:53.569Z,9.30
2024-04-10T03:02:20.438Z,9.20
2024-04-10T03:04:47.410Z,9.20
2024-04-10T03:07:16.486Z,9.20
2024-04-10T03:09:44.064Z,9.20
2024-04-10T03:12:13.015Z,9.10
2024-04-10T03:14:43.894Z,9.10
2024-04-10T03:17:12.784Z,9.10
2024-04-10T03:19:39.878Z,9.10
2024-04-10T03:22:06.718Z,9.00
2024-04-10T03:24:33.752Z,9.00
2024-04-10T03:27:00.976Z,8.90
2024-04-10T03:29:28.181Z,8.80
2024-04-10T03:31:55.778Z,8.80
2024-04-10T03:34:22.671Z,8.90
2024-04-10T03:36:49.951Z,8.80
2024-04-10T03:39:17.296Z,8.90
2024-04-10T03:41:44.151Z,8.80
2024-04-10T03:44:11.000Z,8.90
2024-04-10T03:46:37.957Z,8.90
2024-04-10T03:49:04.802Z,8.80
2024-04-10T03:51:31.862Z,8.80
2024-04-10T03:53:58.676Z,8.80
2024-04-10T03:56:25.547Z,8.70
2024-04-10T03:58:52.746Z,8.70
2024-04-10T04:01:20.757Z,8.70
2024-04-10T04:03:47.794Z,8.80
2024-04-10T04:06:14.670Z,8.80
2024-04-10T04:08:42.461Z,8.80
2024-04-10T04:11:09.396Z,8.80
2024-04-10T04:13:38.676Z,8.80
2024-04-10T04:16:07.301Z,8.80
2024-04-10T04:18:36.021Z,8.80
2024-04-10T04:21:02.959Z,8.80
2024-04-10T04:23:29.862Z,8.70
2024-04-10T04:25:56.840Z,8.70
2024-04-10T04:28:23.703Z,8.80
2024-04-10T04:30:51.062Z,8.70
2024-04-10T04:33:19.624Z,8.80
2024-04-10T04:35:46.962Z,8.80
2024-04-10T04:38:13.883Z,8.80
2024-04-10T04:40:40.776Z,8.80
2024-04-10T04:43:10.754Z,8.80
2024-04-10T04:45:41.818Z,8.80
2024-04-10T04:48:10.018Z,8.90
2024-04-10T04:50:43.925Z,8.80
2024-04-10T04:53:11.831Z,8.80
2024-04-10T04:55:39.857Z,8.80
2024-04-10T04:58:07.013Z,8.80
2024-04-10T05:00:34.305Z,8.90
2024-04-10T05:03:02.141Z,8.80
2024-04-10T05:05:29.136Z,8.80
2024-04-10T05:07:56.019Z,8.80
2024-04-10T05:10:22.921Z,8.80
2024-04-10T05:12:51.413Z,8.90
2024-04-10T05:15:18.262Z,8.90
2024-04-10T05:17:46.599Z,8.80
2024-04-10T05:20:17.747Z,8.80
2024-04-10T05:22:46.070Z,8.90
2024-04-10T05:25:13.078Z,8.90
2024-04-10T05:27:40.083Z,8.90
2024-04-10T05:30:08.808Z,8.90
2024-04-10T05:32:41.277Z,8.90
2024-04-10T05:35:11.254Z,8.80
2024-04-10T05:37:38.409Z,8.80
2024-04-10T05:40:18.025Z,8.90
2024-04-10T05:42:46.944Z,9.00
2024-04-10T05:45:16.256Z,9.00
2024-04-10T05:47:49.221Z,9.10
2024-04-10T05:50:16.599Z,9.20
2024-04-10T05:52:44.247Z,9.10
2024-04-10T05:55:11.967Z,9.10
2024-04-10T05:57:39.297Z,9.10
2024-04-10T06:00:08.478Z,9.10
2024-04-10T06:02:41.578Z,9.10
2024-04-10T06:05:09.879Z,9.10
2024-04-10T06:07:37.570Z,9.20
2024-04-10T06:10:06.175Z,9.20
2024-04-10T06:12:33.337Z,9.20
2024-04-10T06:15:00.262Z,9.20
2024-04-10T06:17:28.067Z,9.30
2024-04-10T06:19:59.443Z,9.30
2024-04-10T06:22:26.432Z,9.30
2024-04-10T06:24:53.535Z,9.30
2024-04-10T06:27:21.685Z,9.30
2024-04-10T06:29:49.190Z,9.30
2024-04-10T06:32:17.437Z,9.40
2024-04-10T06:34:44.415Z,9.40
2024-04-10T06:37:11.324Z,9.40
2024-04-10T06:39:38.234Z,9.40
2024-04-10T06:42:05.419Z,9.40
2024-04-10T06:44:32.889Z,9.30
2024-04-10T06:47:00.636Z,9.30
2024-04-10T06:49:30.882Z,9.30
2024-04-10T06:51:57.957Z,9.40
2024-04-10T06:54:25.263Z,9.40
2024-04-10T06:56:52.147Z,9.60
2024-04-10T06:59:20.212Z,10.20
2024-04-10T07:01:47.673Z,9.90
2024-04-10T07:04:14.684Z,9.70
2024-04-10T07:06:41.635Z,9.60
2024-04-10T07:09:10.973Z,9.50
2024-04-10T07:11:39.365Z,9.60
2024-04-10T07:14:06.622Z,9.70
2024-04-10T07:16:33.690Z,9.70
2024-04-10T07:19:00.905Z,9.80
2024-04-10T07:21:28.128Z,9.80
2024-04-10T07:23:59.429Z,9.80
2024-04-10T07:26:28.411Z,9.90
2024-04-10T07:28:57.690Z,9.90
2024-04-10T07:31:37.608Z,9.90
2024-04-10T07:34:07.244Z,9.90
2024-04-10T07:36:38.335Z,9.80
2024-04-10T07:39:08.586Z,9.90
2024-04-10T07:41:37.470Z,10.00
2024-04-10T07:44:07.009Z,9.90
2024-04-10T07:46:33.976Z,9.80
2024-04-10T07:49:01.064Z,9.90
2024-04-10T07:51:30.964Z,9.90
2024-04-10T07:53:57.898Z,9.90
2024-04-10T07:56:24.944Z,10.20
2024-04-10T07:58:52.102Z,10.40
2024-04-10T08:01:20.334Z,10.30
2024-04-10T08:03:49.548Z,10.30
2024-04-10T08:06:16.520Z,10.50
2024-04-10T08:08:44.161Z,10.70
2024-04-10T08:11:20.226Z,10.70
2024-04-10T08:13:47.460Z,10.90
2024-04-10T08:16:14.540Z,11.00
2024-04-10T08:18:44.871Z,11.30
2024-04-10T08:21:14.727Z,11.30
2024-04-10T08:23:43.344Z,11.40
2024-04-10T08:26:18.794Z,11.50
2024-04-10T08:28:54.145Z,11.60
2024-04-10T08:31:23.491Z,11.40
2024-04-10T08:33:51.326Z,11.40
2024-04-10T08:36:18.594Z,11.40
2024-04-10T08:38:46.420Z,11.30
2024-04-10T08:41:17.805Z,11.30
2024-04-10T08:43:46.334Z,11.20
2024-04-10T08:46:14.506Z,11.10
2024-04-10T08:48:43.429Z,11.10
2024-04-10T08:51:15.095Z,11.10
2024-04-10T08:53:44.584Z,11.10
2024-04-10T08:56:12.967Z,11.30
2024-04-10T08:58:41.101Z,11.30
2024-04-10T09:01:08.180Z,11.60
2024-04-10T09:03:36.411Z,11.70
2024-04-10T09:06:10.120Z,11.90
2024-04-10T09:08:38.691Z,11.80
2024-04-10T09:11:05.948Z,11.90
2024-04-10T09:13:32.892Z,11.80
2024-04-10T09:16:00.809Z,11.80
2024-04-10T09:18:28.528Z,11.90
2024-04-10T09:21:11.883Z,11.80
2024-04-10T09:23:39.374Z,11.70
2024-04-10T09:26:07.397Z,11.60
2024-04-10T09:28:35.061Z,11.60
2024-04-10T09:31:02.619Z,11.70
2024-04-10T09:33:35.589Z,11.80
2024-04-10T09:36:08.323Z,11.90
2024-04-10T09:38:37.579Z,11.90
2024-04-10T09:41:05.266Z,11.70
2024-04-10T09:43:33.290Z,11.70
2024-04-10T09:46:04.258Z,11.70
2024-04-10T09:48:35.681Z,11.70
2024-04-10T09:51:06.850Z,11.90
2024-04-10T09:53:35.545Z,12.30
2024-04-10T09:56:06.828Z,12.40
2024-04-10T09:58:35.270Z,12.40
2024-04-10T10:01:04.083Z,12.40
2024-04-10T10:03:31.974Z,12.30
2024-04-10T10:06:09.243Z,12.40
2024-04-10T10:08:36.938Z,12.30
2024-04-10T10:11:09.421Z,12.30
2024-04-10T10:13:44.957Z,13.10
2024-04-10T10:16:14.309Z,13.80
2024-04-10T10:18:41.674Z,13.50
2024-04-10T10:21:10.996Z,13.50
2024-04-10T10:23:39.773Z,13.30
2024-04-10T10:26:11.578Z,13.20
2024-04-10T10:28:38.698Z,13.10
2024-04-10T10:31:12.379Z,13.20
2024-04-10T10:33:39.840Z,13.30
2024-04-10T10:36:07.431Z,13.20
2024-04-10T10:38:34.677Z,13.30
2024-04-10T10:41:18.260Z,13.10
2024-04-10T10:43:46.446Z,13.10
2024-04-10T10:46:13.806Z,13.10
2024-04-10T10:48:43.305Z,13.20
2024-04-10T10:51:10.460Z,13.40
2024-04-10T10:53:37.433Z,13.40
2024-04-10T10:56:05.045Z,13.50
2024-04-10T10:58:31.929Z,13.50
2024-04-10T11:00:58.904Z,13.50
2024-04-10T11:03:30.226Z,13.60
2024-04-10T11:06:08.821Z,13.50
2024-04-10T11:08:36.004Z,13.70
2024-04-10T11:11:02.999Z,14.00
2024-04-10T11:13:29.833Z,14.10
2024-04-10T11:16:01.150Z,14.20
2024-04-10T11:18:28.356Z,14.30
2024-04-10T11:20:55.560Z,14.60
2024-04-10T11:23:25.275Z,14.80
2024-04-10T11:25:53.052Z,14.90
2024-04-10T11:28:19.884Z,14.80
2024-04-10T11:30:46.756Z,14.60
2024-04-10T11:33:13.975Z,14.70
2024-04-10T11:35:41.671Z,14.90
2024-04-10T11:38:09.004Z,14.90
2024-04-10T11:40:36.043Z,14.80
2024-04-10T11:43:03.416Z,14.80
2024-04-10T11:45:30.513Z,14.90
2024-04-10T11:47:57.620Z,15.00
2024-04-10T11:50:24.760Z,15.10
2024-04-10T11:52:51.696Z,15.00
2024-04-10T11:55:18.568Z,15.00
2024-04-10T11:57:46.595Z,15.00
2024-04-10T12:00:15.598Z,15.40
2024-04-10T12:02:44.116Z,15.40
2024-04-10T12:05:11.353Z,15.40
2024-04-10T12:07:39.265Z,15.20
2024-04-10T12:10:07.218Z,15.30
2024-04-10T12:12:34.610Z,15.40
2024-04-10T12:15:02.183Z,15.70
2024-04-10T12:17:31.070Z,15.80
2024-04-10T12:19:59.015Z,15.90
2024-04-10T12:22:26.140Z,15.80
2024-04-10T12:24:53.206Z,15.60
2024-04-10T12:27:20.090Z,15.70
2024-04-10T12:29:47.346Z,15.60
2024-04-10T12:32:14.437Z,15.60
2024-04-10T12:34:41.844Z,15.50
2024-04-10T12:37:27.999Z,15.20
2024-04-10T12:39:54.832Z,15.20
2024-04-10T12:42:21.765Z,15.20
2024-04-10T12:44:48.757Z,15.30
2024-04-10T12:47:15.685Z,15.30
2024-04-10T12:49:43.711Z,15.20
2024-04-10T12:52:10.726Z,15.00
2024-04-10T12:54:38.564Z,15.10
2024-04-10T12:57:06.174Z,15.20
2024-04-10T12:59:33.178Z,15.20
2024-04-10T13:02:00.196Z,15.30
2024-04-10T13:04:27.140Z,15.50
2024-04-10T13:06:54.035Z,15.70
2024-04-10T13:09:21.878Z,15.90
2024-04-10T13:11:48.927Z,16.00
2024-04-10T13:14:17.070Z,16.10
2024-04-10T13:16:44.154Z,16.00
2024-04-10T13:19:11.248Z,16.00
2024-04-10T13:21:39.429Z,16.00
2024-04-10T13:24:06.755Z,15.90
2024-04-10T13:26:34.372Z,15.80
2024-04-10T13:29:01.468Z,15.60
2024-04-10T13:31:28.488Z,15.60
2024-04-10T13:33:57.231Z,15.80
2024-04-10T13:36:24.384Z,15.90
2024-04-10T13:38:52.443Z,16.00
2024-04-10T13:41:21.247Z,16.00
2024-04-10T13:43:53.310Z,16.00
2024-04-10T13:46:21.230Z,16.10
2024-04-10T13:48:48.589Z,16.10
2024-04-10T13:51:26.798Z,16.20
2024-04-10T13:53:55.126Z,16.30
2024-04-10T13:56:23.066Z,16.30
2024-04-10T13:58:50.926Z,16.20
2024-04-10T14:01:20.219Z,16.10
2024-04-10T14:03:53.167Z,16.20
2024-04-10T14:06:24.567Z,16.20
2024-04-10T14:08:53.318Z,16.30
2024-04-10T14:11:20.721Z,16.40
2024-04-10T14:13:47.769Z,16.40
2024-04-10T14:16:15.168Z,16.40
2024-04-10T14:18:42.583Z,16.30
2024-04-10T14:21:14.435Z,16.10
2024-04-10T14:23:43.105Z,16.20
2024-04-10T14:26:15.243Z,16.10
2024-04-10T14:28:42.547Z,16.00
2024-04-10T14:31:13.045Z,16.00
2024-04-10T14:33:44.827Z,15.90
2024-04-10T14:36:12.566Z,15.80
2024-04-10T14:38:40.236Z,15.90
2024-04-10T14:41:08.511Z,15.80
2024-04-10T14:43:37.585Z,16.00
2024-04-10T14:46:08.927Z,16.00
2024-04-10T14:48:38.213Z,15.90
2024-04-10T14:51:06.635Z,16.00
2024-04-10T14:53:33.727Z,15.90
2024-04-10T14:56:10.442Z,16.10
2024-04-10T14:58:41.392Z,16.00
2024-04-10T15:01:17.773Z,16.00
2024-04-10T15:03:46.021Z,16.20
2024-04-10T15:06:13.711Z,16.40
2024-04-10T15:08:41.018Z,16.40
2024-04-10T15:11:09.062Z,16.50
2024-04-10T15:13:36.830Z,16.50
2024-04-10T15:16:03.895Z,16.40
2024-04-10T15:18:31.046Z,16.40
2024-04-10T15:21:01.982Z,16.40
2024-04-10T15:23:28.958Z,16.40
2024-04-10T15:25:59.487Z,16.10
2024-04-10T15:28:31.308Z,16.10
2024-04-10T15:31:05.832Z,16.10
2024-04-10T15:33:34.803Z,15.90
2024-04-10T15:36:12.805Z,15.90
2024-04-10T15:38:45.453Z,16.00
2024-04-10T15:41:13.227Z,15.90
2024-04-10T15:43:40.445Z,16.00
2024-04-10T15:46:12.513Z,16.00
2024-04-10T15:48:39.900Z,16.00
2024-04-10T15:51:13.081Z,16.00
2024-04-10T15:53:40.682Z,16.10
2024-04-10T15:56:11.900Z,16.20
2024-04-10T15:58:40.258Z,16.20
2024-04-10T16:01:08.715Z,16.10
2024-04-10T16:03:41.805Z,16.20
2024-04-10T16:06:11.506Z,16.10
2024-04-10T16:08:38.821Z,16.10
2024-04-10T16:11:11.192Z,16.10
2024-04-10T16:13:38.025Z,16.20
2024-04-10T16:16:06.429Z,16.10
2024-04-10T16:18:34.071Z,16.00
2024-04-10T16:21:06.805Z,15.90
2024-04-10T16:23:34.325Z,15.90
2024-04-10T16:26:09.016Z,15.90
2024-04-10T16:28:37.255Z,15.90
2024-04-10T16:31:05.023Z,16.00
2024-04-10T16:33:32.117Z,15.90
2024-04-10T16:36:10.620Z,15.70
2024-04-10T16:38:41.517Z,15.70
2024-04-10T16:41:08.456Z,15.60
2024-04-10T16:43:37.996Z,15.40
2024-04-10T16:46:07.227Z,15.30
2024-04-10T16:48:34.517Z,15.40
2024-04-10T16:51:07.174Z,15.60
2024-04-10T16:53:36.205Z,15.60
2024-04-10T16:57:50.301Z,15.70
2024-04-10T17:00:17.354Z,15.40
2024-04-10T17:02:46.558Z,15.30
2024-04-10T17:05:13.635Z,15.30
2024-04-10T17:07:40.474Z,15.40
2024-04-10T17:10:07.561Z,15.30
2024-04-10T17:12:35.208Z,15.20
2024-04-10T17:15:02.574Z,15.30
2024-04-10T17:17:49.637Z,15.30
2024-04-10T17:20:43.490Z,15.30
2024-04-10T17:23:10.384Z,15.40
2024-04-10T17:25:39.591Z,15.30
2024-04-10T17:28:06.713Z,15.40
2024-04-10T17:30:33.575Z,15.40
2024-04-10T17:33:01.121Z,15.40
2024-04-10T17:35:28.078Z,15.50
2024-04-10T17:37:56.118Z,15.50
2024-04-10T17:40:22.961Z,15.50
2024-04-10T17:42:49.799Z,15.40
2024-04-10T17:45:16.964Z,15.40
2024-04-10T17:47:44.151Z,15.40
2024-04-10T17:50:11.138Z,15.40
2024-04-10T17:52:38.492Z,15.20
2024-04-10T17:55:06.156Z,15.30
2024-04-10T17:57:33.761Z,15.30
2024-04-10T18:00:00.878Z,15.40
2024-04-10T18:02:31.275Z,15.50
2024-04-10T18:04:58.303Z,15.40
2024-04-10T18:07:25.171Z,15.20
2024-04-10T18:09:52.032Z,15.10
2024-04-10T18:12:21.170Z,15.00
2024-04-10T18:14:49.112Z,14.90
2024-04-10T18:17:16.200Z,14.90
2024-04-10T18:19:43.493Z,14.80
2024-04-10T18:22:10.532Z,14.70
2024-04-10T18:24:37.360Z,14.60
2024-04-10T18:27:04.608Z,14.40
2024-04-10T18:29:32.025Z,14.30
2024-04-10T18:31:58.969Z,14.20
2024-04-10T18:34:26.667Z,14.20
2024-04-10T18:36:53.847Z,14.00
2024-04-10T18:39:20.712Z,13.90
2024-04-10T18:41:47.605Z,13.70
2024-04-10T18:44:16.531Z,13.60
2024-04-10T18:46:43.639Z,13.60
2024-04-10T18:49:10.818Z,13.60
2024-04-10T18:51:38.322Z,13.60
2024-04-10T18:54:06.729Z,13.40
2024-04-10T18:56:34.626Z,13.30
2024-04-10T18:59:02.102Z,13.10
2024-04-10T19:01:28.958Z,13.00
2024-04-10T19:03:56.190Z,12.80
2024-04-10T19:06:25.001Z,12.70
2024-04-10T19:08:51.945Z,12.60
2024-04-10T19:11:19.107Z,12.50
2024-04-10T19:13:46.113Z,12.50
2024-04-10T19:16:13.573Z,12.40
2024-04-10T19:18:44.896Z,12.30
2024-04-10T19:21:16.541Z,12.10
2024-04-10T19:23:43.462Z,11.80
2024-04-10T19:26:12.765Z,11.80
2024-04-10T19:28:39.667Z,11.70
2024-04-10T19:31:06.842Z,11.80
2024-04-10T19:33:38.292Z,11.70
2024-04-10T19:36:06.846Z,11.70
2024-04-10T19:38:34.303Z,11.70
2024-04-10T19:41:02.911Z,11.80
2024-04-10T19:43:30.148Z,11.70
2024-04-10T19:45:57.229Z,11.60
2024-04-10T19:48:25.038Z,11.60
2024-04-10T19:51:06.828Z,11.50
2024-04-10T19:53:34.942Z,11.30
2024-04-10T19:56:11.275Z,11.30
2024-04-10T19:58:39.861Z,11.20
2024-04-10T20:01:12.133Z,11.20
2024-04-10T20:03:43.022Z,11.10
2024-04-10T20:06:11.094Z,11.00
2024-04-10T20:08:42.065Z,11.00
2024-04-10T20:11:10.539Z,10.90
2024-04-10T20:13:38.043Z,10.90
2024-04-10T20:16:08.125Z,10.90
2024-04-10T20:18:36.530Z,10.70
2024-04-10T20:21:07.438Z,10.60
2024-04-10T20:23:35.821Z,10.60
2024-04-10T20:26:04.481Z,10.70
2024-04-10T20:28:32.944Z,10.60
2024-04-10T20:31:04.898Z,10.50
2024-04-10T20:33:32.736Z,10.60
2024-04-10T20:36:00.254Z,10.50
2024-04-10T20:38:27.840Z,10.40
2024-04-10T20:41:06.535Z,10.30
2024-04-10T20:43:34.302Z,10.40
2024-04-10T20:46:02.764Z,10.40
2024-04-10T20:48:33.730Z,10.30
2024-04-10T20:51:13.771Z,10.30
2024-04-10T20:53:46.069Z,10.10
2024-04-10T20:56:16.921Z,10.20
2024-04-10T20:58:44.051Z,10.20
2024-04-10T21:01:14.406Z,10.20
2024-04-10T21:03:43.743Z,10.10
2024-04-10T21:06:13.265Z,10.10
2024-04-10T21:09:03.578Z,10.00
2024-04-10T21:11:51.328Z,10.00
2024-04-10T21:14:36.962Z,9.90
2024-04-10T21:17:22.563Z,9.90
2024-04-10T21:20:08.073Z,9.90
2024-04-10T21:22:54.055Z,9.80
2024-04-10T21:25:48.797Z,9.70
2024-04-10T21:28:35.083Z,9.70
2024-04-10T21:31:27.734Z,9.70
2024-04-10T21:34:14.178Z,9.70
2024-04-10T21:36:59.821Z,9.70
2024-04-10T21:39:45.937Z,9.60
2024-04-10T21:42:31.776Z,9.60
2024-04-10T21:45:17.967Z,9.30
2024-04-10T21:48:03.906Z,9.40
2024-04-10T21:50:49.818Z,9.30
2024-04-10T21:53:35.662Z,9.20
2024-04-10T21:56:25.848Z,9.20
2024-04-10T21:59:12.157Z,9.20
2024-04-10T22:04:47.312Z,9.20
2024-04-10T22:07:34.916Z,9.20
2024-04-10T22:10:02.040Z,9.10
2024-04-10T22:12:29.731Z,9.10
2024-04-10T22:14:56.843Z,9.10
2024-04-10T22:17:42.596Z,9.00
2024-04-10T22:20:30.029Z,8.90
2024-04-10T22:23:15.414Z,8.90
2024-04-10T22:25:52.660Z,8.90
2024-04-10T22:28:23.924Z,8.80
2024-04-10T22:30:51.158Z,8.70
2024-04-10T22:33:20.047Z,8.70
2024-04-10T22:35:57.322Z,8.70
2024-04-10T22:38:24.339Z,8.60
2024-04-10T22:40:51.359Z,8.70
2024-04-10T22:43:18.258Z,8.70
2024-04-10T22:45:45.232Z,8.60
2024-04-10T22:48:13.104Z,8.60
2024-04-10T22:50:40.297Z,8.60
2024-04-10T22:53:07.965Z,8.60
2024-04-10T22:55:34.895Z,8.60
2024-04-10T22:58:03.349Z,8.50
2024-04-10T23:00:30.502Z,8.50
2024-04-10T23:02:57.715Z,8.60
2024-04-10T23:05:40.928Z,8.50
2024-04-10T23:08:29.062Z,8.50
2024-04-10T23:10:58.416Z,8.50
2024-04-10T23:13:25.272Z,8.40
2024-04-10T23:15:52.173Z,8.40
2024-04-10T23:18:26.036Z,8.50
2024-04-10T23:21:04.899Z,8.50
2024-04-10T23:23:32.124Z,8.40
2024-04-10T23:25:59.048Z,8.40
2024-04-10T23:28:25.906Z,8.30
2024-04-10T23:30:52.751Z,8.30
2024-04-10T23:33:20.028Z,8.30
2024-04-10T23:35:47.304Z,8.30
2024-04-10T23:38:14.523Z,8.20
2024-04-10T23:40:43.194Z,8.20
2024-04-10T23:43:11.349Z,8.20
2024-04-10T23:45:38.908Z,8.20
2024-04-10T23:48:06.159Z,8.10
2024-04-10T23:50:33.308Z,8.20
2024-04-10T23:53:01.011Z,8.10
2024-04-10T23:55:27.903Z,8.20
2024-04-10T23:58:01.175Z,8.20
